sensor_id;sensor_type;location;lat;lon;timestamp;P1;durP1;ratioP1;P2;durP2;ratioP2
65572;SDS011;52214;50.940;13.996;2022-11-15T00:00:46;75.32;;;27.95;;
65572;SDS011;52214;50.940;13.996;2022-11-15T00:03:16;75.20;;;28.77;;
65572;SDS011;52214;50.940;13.996;2022-11-15T00:05:42;74.10;;;29.50;;
65572;SDS011;52214;50.940;13.996;2022-11-15T00:08:08;74.07;;;28.83;;
65572;SDS011;52214;50.940;13.996;2022-11-15T00:10:34;75.40;;;28.80;;
65572;SDS011;52214;50.940;13.996;2022-11-15T00:12:59;69.25;;;27.35;;
65572;SDS011;52214;50.940;13.996;2022-11-15T00:15:25;73.67;;;27.60;;
65572;SDS011;52214;50.940;13.996;2022-11-15T00:17:50;70.30;;;27.73;;
65572;SDS011;52214;50.940;13.996;2022-11-15T00:20:16;78.13;;;28.50;;
65572;SDS011;52214;50.940;13.996;2022-11-15T00:22:42;66.00;;;26.67;;
65572;SDS011;52214;50.940;13.996;2022-11-15T00:25:08;72.30;;;28.70;;
65572;SDS011;52214;50.940;13.996;2022-11-15T00:27:33;75.70;;;28.85;;
65572;SDS011;52214;50.940;13.996;2022-11-15T00:30:00;74.00;;;29.13;;
65572;SDS011;52214;50.940;13.996;2022-11-15T00:32:25;69.50;;;27.70;;
65572;SDS011;52214;50.940;13.996;2022-11-15T00:34:51;92.07;;;31.57;;
65572;SDS011;52214;50.940;13.996;2022-11-15T00:37:17;97.15;;;33.13;;
65572;SDS011;52214;50.940;13.996;2022-11-15T00:39:42;97.53;;;31.70;;
65572;SDS011;52214;50.940;13.996;2022-11-15T00:42:08;88.40;;;31.67;;
65572;SDS011;52214;50.940;13.996;2022-11-15T00:44:33;95.82;;;31.45;;
65572;SDS011;52214;50.940;13.996;2022-11-15T00:46:59;79.47;;;29.67;;
65572;SDS011;52214;50.940;13.996;2022-11-15T00:49:24;75.80;;;28.77;;
65572;SDS011;52214;50.940;13.996;2022-11-15T00:51:50;72.40;;;27.23;;
65572;SDS011;52214;50.940;13.996;2022-11-15T00:54:15;63.22;;;24.02;;
65572;SDS011;52214;50.940;13.996;2022-11-15T00:56:41;86.97;;;30.67;;
65572;SDS011;52214;50.940;13.996;2022-11-15T00:59:06;81.60;;;28.57;;
65572;SDS011;52214;50.940;13.996;2022-11-15T01:01:32;71.77;;;26.43;;
65572;SDS011;52214;50.940;13.996;2022-11-15T01:03:57;88.65;;;31.95;;
65572;SDS011;52214;50.940;13.996;2022-11-15T01:06:23;72.13;;;26.00;;
65572;SDS011;52214;50.940;13.996;2022-11-15T01:08:48;90.20;;;31.00;;
65572;SDS011;52214;50.940;13.996;2022-11-15T01:11:14;78.55;;;27.35;;
65572;SDS011;52214;50.940;13.996;2022-11-15T01:13:39;82.23;;;29.47;;
65572;SDS011;52214;50.940;13.996;2022-11-15T01:16:08;78.65;;;30.23;;
65572;SDS011;52214;50.940;13.996;2022-11-15T01:18:38;76.70;;;28.27;;
65572;SDS011;52214;50.940;13.996;2022-11-15T01:21:05;73.50;;;29.08;;
65572;SDS011;52214;50.940;13.996;2022-11-15T01:23:36;85.55;;;30.00;;
65572;SDS011;52214;50.940;13.996;2022-11-15T01:26:03;80.53;;;28.17;;
65572;SDS011;52214;50.940;13.996;2022-11-15T01:28:31;76.72;;;28.75;;
65572;SDS011;52214;50.940;13.996;2022-11-15T01:30:58;81.90;;;29.97;;
65572;SDS011;52214;50.940;13.996;2022-11-15T01:33:25;86.80;;;29.55;;
65572;SDS011;52214;50.940;13.996;2022-11-15T01:35:50;77.57;;;28.27;;
65572;SDS011;52214;50.940;13.996;2022-11-15T01:38:16;75.57;;;28.63;;
65572;SDS011;52214;50.940;13.996;2022-11-15T01:40:41;75.30;;;28.47;;
65572;SDS011;52214;50.940;13.996;2022-11-15T01:45:51;71.95;;;25.77;;
65572;SDS011;52214;50.940;13.996;2022-11-15T01:48:22;70.20;;;26.33;;
65572;SDS011;52214;50.940;13.996;2022-11-15T01:50:50;70.63;;;27.52;;
65572;SDS011;52214;50.940;13.996;2022-11-15T01:53:17;75.10;;;26.60;;
65572;SDS011;52214;50.940;13.996;2022-11-15T01:55:45;75.97;;;27.75;;
65572;SDS011;52214;50.940;13.996;2022-11-15T01:58:11;70.88;;;25.80;;
65572;SDS011;52214;50.940;13.996;2022-11-15T02:00:36;66.70;;;25.70;;
65572;SDS011;52214;50.940;13.996;2022-11-15T02:03:02;71.60;;;26.87;;
65572;SDS011;52214;50.940;13.996;2022-11-15T02:05:28;78.70;;;26.58;;
65572;SDS011;52214;50.940;13.996;2022-11-15T02:07:55;74.53;;;27.35;;
65572;SDS011;52214;50.940;13.996;2022-11-15T02:10:21;72.57;;;27.00;;
65572;SDS011;52214;50.940;13.996;2022-11-15T02:12:48;71.50;;;26.65;;
65572;SDS011;52214;50.940;13.996;2022-11-15T02:15:15;59.65;;;23.25;;
65572;SDS011;52214;50.940;13.996;2022-11-15T02:17:45;70.70;;;25.00;;
65572;SDS011;52214;50.940;13.996;2022-11-15T02:31:56;58.07;;;23.47;;
65572;SDS011;52214;50.940;13.996;2022-11-15T02:37:15;63.53;;;24.20;;
65572;SDS011;52214;50.940;13.996;2022-11-15T02:42:32;63.00;;;24.35;;
65572;SDS011;52214;50.940;13.996;2022-11-15T02:45:30;67.30;;;25.73;;
65572;SDS011;52214;50.940;13.996;2022-11-15T02:47:58;63.22;;;23.25;;
65572;SDS011;52214;50.940;13.996;2022-11-15T02:50:27;66.70;;;26.13;;
65572;SDS011;52214;50.940;13.996;2022-11-15T02:52:55;70.28;;;26.38;;
65572;SDS011;52214;50.940;13.996;2022-11-15T02:55:31;63.55;;;23.27;;
65572;SDS011;52214;50.940;13.996;2022-11-15T03:01:31;63.53;;;23.77;;
65572;SDS011;52214;50.940;13.996;2022-11-15T03:06:28;67.40;;;25.63;;
65572;SDS011;52214;50.940;13.996;2022-11-15T03:12:00;69.13;;;25.37;;
65572;SDS011;52214;50.940;13.996;2022-11-15T03:17:28;65.55;;;24.88;;
65572;SDS011;52214;50.940;13.996;2022-11-15T03:19:59;72.53;;;25.50;;
65572;SDS011;52214;50.940;13.996;2022-11-15T03:22:28;65.55;;;24.52;;
65572;SDS011;52214;50.940;13.996;2022-11-15T03:24:56;73.00;;;26.03;;
65572;SDS011;52214;50.940;13.996;2022-11-15T03:27:25;71.35;;;26.10;;
65572;SDS011;52214;50.940;13.996;2022-11-15T03:29:56;65.75;;;25.00;;
65572;SDS011;52214;50.940;13.996;2022-11-15T03:32:26;63.95;;;23.50;;
65572;SDS011;52214;50.940;13.996;2022-11-15T03:37:56;64.50;;;23.83;;
65572;SDS011;52214;50.940;13.996;2022-11-15T03:40:36;62.08;;;23.88;;
65572;SDS011;52214;50.940;13.996;2022-11-15T03:43:07;59.88;;;23.27;;
65572;SDS011;52214;50.940;13.996;2022-11-15T03:45:41;69.00;;;25.67;;
65572;SDS011;52214;50.940;13.996;2022-11-15T03:48:14;66.28;;;24.38;;
65572;SDS011;52214;50.940;13.996;2022-11-15T03:50:45;61.93;;;23.87;;
65572;SDS011;52214;50.940;13.996;2022-11-15T03:53:11;68.93;;;24.48;;
65572;SDS011;52214;50.940;13.996;2022-11-15T03:55:38;68.22;;;24.30;;
65572;SDS011;52214;50.940;13.996;2022-11-15T03:58:03;63.70;;;25.40;;
65572;SDS011;52214;50.940;13.996;2022-11-15T04:00:29;65.53;;;25.33;;
65572;SDS011;52214;50.940;13.996;2022-11-15T04:02:54;70.77;;;25.97;;
65572;SDS011;52214;50.940;13.996;2022-11-15T04:05:20;68.50;;;25.13;;
65572;SDS011;52214;50.940;13.996;2022-11-15T04:07:45;71.00;;;24.23;;
65572;SDS011;52214;50.940;13.996;2022-11-15T04:10:11;75.47;;;26.33;;
65572;SDS011;52214;50.940;13.996;2022-11-15T04:12:38;68.57;;;25.23;;
65572;SDS011;52214;50.940;13.996;2022-11-15T04:15:12;70.65;;;24.45;;
65572;SDS011;52214;50.940;13.996;2022-11-15T04:17:43;70.30;;;25.20;;
65572;SDS011;52214;50.940;13.996;2022-11-15T04:23:02;67.22;;;25.13;;
65572;SDS011;52214;50.940;13.996;2022-11-15T04:25:49;68.47;;;25.85;;
65572;SDS011;52214;50.940;13.996;2022-11-15T04:28:17;77.72;;;25.35;;
65572;SDS011;52214;50.940;13.996;2022-11-15T04:30:43;73.17;;;24.10;;
65572;SDS011;52214;50.940;13.996;2022-11-15T04:33:08;73.85;;;26.13;;
65572;SDS011;52214;50.940;13.996;2022-11-15T04:35:34;81.20;;;28.70;;
65572;SDS011;52214;50.940;13.996;2022-11-15T04:38:00;72.72;;;26.30;;
65572;SDS011;52214;50.940;13.996;2022-11-15T04:40:27;79.07;;;26.23;;
65572;SDS011;52214;50.940;13.996;2022-11-15T04:42:53;68.10;;;25.35;;
65572;SDS011;52214;50.940;13.996;2022-11-15T04:45:18;72.03;;;26.80;;
65572;SDS011;52214;50.940;13.996;2022-11-15T04:47:44;73.30;;;26.85;;
65572;SDS011;52214;50.940;13.996;2022-11-15T04:50:11;73.35;;;25.27;;
65572;SDS011;52214;50.940;13.996;2022-11-15T04:52:41;73.57;;;26.77;;
65572;SDS011;52214;50.940;13.996;2022-11-15T04:55:08;74.68;;;27.40;;
65572;SDS011;52214;50.940;13.996;2022-11-15T04:57:34;74.05;;;29.42;;
65572;SDS011;52214;50.940;13.996;2022-11-15T05:00:00;67.57;;;25.13;;
65572;SDS011;52214;50.940;13.996;2022-11-15T05:02:26;74.82;;;26.50;;
65572;SDS011;52214;50.940;13.996;2022-11-15T05:05:11;74.07;;;27.48;;
65572;SDS011;52214;50.940;13.996;2022-11-15T05:07:37;74.13;;;27.97;;
65572;SDS011;52214;50.940;13.996;2022-11-15T05:10:02;81.03;;;29.10;;
65572;SDS011;52214;50.940;13.996;2022-11-15T05:12:28;70.15;;;26.25;;
65572;SDS011;52214;50.940;13.996;2022-11-15T05:14:54;76.63;;;26.20;;
65572;SDS011;52214;50.940;13.996;2022-11-15T05:17:19;77.00;;;27.67;;
65572;SDS011;52214;50.940;13.996;2022-11-15T05:19:44;72.30;;;25.23;;
65572;SDS011;52214;50.940;13.996;2022-11-15T05:22:10;67.37;;;26.77;;
65572;SDS011;52214;50.940;13.996;2022-11-15T05:24:35;70.90;;;25.17;;
65572;SDS011;52214;50.940;13.996;2022-11-15T05:27:01;74.67;;;27.97;;
65572;SDS011;52214;50.940;13.996;2022-11-15T05:29:26;68.47;;;24.02;;
65572;SDS011;52214;50.940;13.996;2022-11-15T05:31:52;79.70;;;25.93;;
65572;SDS011;52214;50.940;13.996;2022-11-15T05:34:17;76.63;;;27.77;;
65572;SDS011;52214;50.940;13.996;2022-11-15T05:36:43;79.53;;;27.27;;
65572;SDS011;52214;50.940;13.996;2022-11-15T05:44:10;71.57;;;25.67;;
65572;SDS011;52214;50.940;13.996;2022-11-15T05:49:06;70.43;;;26.40;;
65572;SDS011;52214;50.940;13.996;2022-11-15T05:51:35;73.88;;;25.88;;
65572;SDS011;52214;50.940;13.996;2022-11-15T05:54:01;80.68;;;27.25;;
65572;SDS011;52214;50.940;13.996;2022-11-15T05:56:28;73.13;;;26.23;;
65572;SDS011;52214;50.940;13.996;2022-11-15T05:58:54;69.28;;;25.08;;
65572;SDS011;52214;50.940;13.996;2022-11-15T06:01:21;70.88;;;27.02;;
65572;SDS011;52214;50.940;13.996;2022-11-15T06:03:47;73.10;;;25.27;;
65572;SDS011;52214;50.940;13.996;2022-11-15T06:06:13;71.32;;;25.35;;
65572;SDS011;52214;50.940;13.996;2022-11-15T06:08:38;72.67;;;24.87;;
65572;SDS011;52214;50.940;13.996;2022-11-15T06:11:05;69.47;;;24.83;;
65572;SDS011;52214;50.940;13.996;2022-11-15T06:13:31;67.05;;;24.30;;
65572;SDS011;52214;50.940;13.996;2022-11-15T06:15:57;67.50;;;25.67;;
65572;SDS011;52214;50.940;13.996;2022-11-15T06:18:22;69.93;;;24.13;;
65572;SDS011;52214;50.940;13.996;2022-11-15T06:20:48;72.20;;;25.67;;
65572;SDS011;52214;50.940;13.996;2022-11-15T06:23:13;72.63;;;25.63;;
65572;SDS011;52214;50.940;13.996;2022-11-15T06:25:39;77.70;;;24.93;;
65572;SDS011;52214;50.940;13.996;2022-11-15T06:28:04;69.63;;;24.90;;
65572;SDS011;52214;50.940;13.996;2022-11-15T06:30:30;79.78;;;28.02;;
65572;SDS011;52214;50.940;13.996;2022-11-15T06:33:02;67.80;;;23.63;;
65572;SDS011;52214;50.940;13.996;2022-11-15T06:35:30;71.65;;;25.05;;
65572;SDS011;52214;50.940;13.996;2022-11-15T06:38:02;80.40;;;27.35;;
65572;SDS011;52214;50.940;13.996;2022-11-15T06:40:33;67.37;;;24.33;;
65572;SDS011;52214;50.940;13.996;2022-11-15T06:43:00;73.97;;;25.52;;
65572;SDS011;52214;50.940;13.996;2022-11-15T06:45:26;74.30;;;25.13;;
65572;SDS011;52214;50.940;13.996;2022-11-15T06:47:52;70.60;;;26.53;;
65572;SDS011;52214;50.940;13.996;2022-11-15T06:50:17;70.15;;;25.30;;
65572;SDS011;52214;50.940;13.996;2022-11-15T06:52:43;90.83;;;26.23;;
65572;SDS011;52214;50.940;13.996;2022-11-15T06:55:09;79.47;;;25.73;;
65572;SDS011;52214;50.940;13.996;2022-11-15T06:57:35;69.27;;;24.33;;
65572;SDS011;52214;50.940;13.996;2022-11-15T07:00:03;76.28;;;26.25;;
65572;SDS011;52214;50.940;13.996;2022-11-15T07:02:29;80.40;;;25.20;;
65572;SDS011;52214;50.940;13.996;2022-11-15T07:04:55;79.65;;;24.90;;
65572;SDS011;52214;50.940;13.996;2022-11-15T07:07:21;83.30;;;26.80;;
65572;SDS011;52214;50.940;13.996;2022-11-15T07:09:46;73.28;;;26.98;;
65572;SDS011;52214;50.940;13.996;2022-11-15T07:12:12;72.70;;;25.60;;
65572;SDS011;52214;50.940;13.996;2022-11-15T07:14:38;72.20;;;25.47;;
65572;SDS011;52214;50.940;13.996;2022-11-15T07:17:04;83.53;;;26.17;;
65572;SDS011;52214;50.940;13.996;2022-11-15T07:19:30;75.30;;;25.60;;
65572;SDS011;52214;50.940;13.996;2022-11-15T07:21:55;75.47;;;25.57;;
65572;SDS011;52214;50.940;13.996;2022-11-15T07:24:21;80.47;;;27.90;;
65572;SDS011;52214;50.940;13.996;2022-11-15T07:26:47;72.53;;;25.45;;
65572;SDS011;52214;50.940;13.996;2022-11-15T07:29:12;71.80;;;25.40;;
65572;SDS011;52214;50.940;13.996;2022-11-15T07:31:38;77.07;;;25.87;;
65572;SDS011;52214;50.940;13.996;2022-11-15T07:34:04;75.78;;;25.13;;
65572;SDS011;52214;50.940;13.996;2022-11-15T07:36:29;77.90;;;25.58;;
65572;SDS011;52214;50.940;13.996;2022-11-15T07:38:55;74.93;;;25.15;;
65572;SDS011;52214;50.940;13.996;2022-11-15T07:41:20;74.30;;;23.70;;
65572;SDS011;52214;50.940;13.996;2022-11-15T07:43:46;71.00;;;23.83;;
65572;SDS011;52214;50.940;13.996;2022-11-15T07:46:11;65.78;;;23.13;;
65572;SDS011;52214;50.940;13.996;2022-11-15T07:48:37;62.33;;;23.30;;
65572;SDS011;52214;50.940;13.996;2022-11-15T07:51:06;66.03;;;24.20;;
65572;SDS011;52214;50.940;13.996;2022-11-15T07:53:32;69.33;;;23.77;;
65572;SDS011;52214;50.940;13.996;2022-11-15T07:55:58;72.50;;;24.42;;
65572;SDS011;52214;50.940;13.996;2022-11-15T07:58:23;61.43;;;24.90;;
65572;SDS011;52214;50.940;13.996;2022-11-15T08:00:49;71.00;;;24.47;;
65572;SDS011;52214;50.940;13.996;2022-11-15T08:03:15;67.38;;;23.98;;
65572;SDS011;52214;50.940;13.996;2022-11-15T08:05:42;60.27;;;23.63;;
65572;SDS011;52214;50.940;13.996;2022-11-15T08:08:09;65.95;;;23.40;;
65572;SDS011;52214;50.940;13.996;2022-11-15T08:10:36;68.78;;;24.23;;
65572;SDS011;52214;50.940;13.996;2022-11-15T08:13:03;62.60;;;23.60;;
65572;SDS011;52214;50.940;13.996;2022-11-15T08:15:30;62.03;;;22.35;;
65572;SDS011;52214;50.940;13.996;2022-11-15T08:17:58;61.80;;;23.90;;
65572;SDS011;52214;50.940;13.996;2022-11-15T08:20:25;58.80;;;21.90;;
65572;SDS011;52214;50.940;13.996;2022-11-15T08:22:55;63.47;;;24.55;;
65572;SDS011;52214;50.940;13.996;2022-11-15T08:25:22;57.85;;;22.98;;
65572;SDS011;52214;50.940;13.996;2022-11-15T08:27:52;60.50;;;23.35;;
65572;SDS011;52214;50.940;13.996;2022-11-15T08:30:18;50.57;;;21.93;;
65572;SDS011;52214;50.940;13.996;2022-11-15T08:32:44;55.63;;;20.30;;
65572;SDS011;52214;50.940;13.996;2022-11-15T08:35:10;51.15;;;20.75;;
65572;SDS011;52214;50.940;13.996;2022-11-15T08:37:36;49.07;;;21.03;;
65572;SDS011;52214;50.940;13.996;2022-11-15T08:40:02;55.50;;;21.77;;
65572;SDS011;52214;50.940;13.996;2022-11-15T08:42:28;48.80;;;20.98;;
65572;SDS011;52214;50.940;13.996;2022-11-15T08:44:53;49.83;;;20.40;;
65572;SDS011;52214;50.940;13.996;2022-11-15T08:47:19;47.07;;;19.47;;
65572;SDS011;52214;50.940;13.996;2022-11-15T08:49:44;48.70;;;19.73;;
65572;SDS011;52214;50.940;13.996;2022-11-15T08:52:10;43.83;;;18.88;;
65572;SDS011;52214;50.940;13.996;2022-11-15T08:54:36;45.95;;;20.10;;
65572;SDS011;52214;50.940;13.996;2022-11-15T08:57:01;43.60;;;20.23;;
65572;SDS011;52214;50.940;13.996;2022-11-15T08:59:27;46.97;;;19.33;;
65572;SDS011;52214;50.940;13.996;2022-11-15T09:01:52;42.67;;;18.27;;
65572;SDS011;52214;50.940;13.996;2022-11-15T09:04:18;44.63;;;18.90;;
65572;SDS011;52214;50.940;13.996;2022-11-15T09:06:43;41.70;;;18.15;;
65572;SDS011;52214;50.940;13.996;2022-11-15T09:09:09;40.23;;;17.37;;
65572;SDS011;52214;50.940;13.996;2022-11-15T09:11:35;42.97;;;17.87;;
65572;SDS011;52214;50.940;13.996;2022-11-15T09:14:00;38.28;;;18.13;;
65572;SDS011;52214;50.940;13.996;2022-11-15T09:16:26;35.80;;;17.63;;
65572;SDS011;52214;50.940;13.996;2022-11-15T09:18:52;38.05;;;16.63;;
65572;SDS011;52214;50.940;13.996;2022-11-15T09:21:19;33.87;;;15.27;;
65572;SDS011;52214;50.940;13.996;2022-11-15T09:23:45;35.33;;;15.82;;
65572;SDS011;52214;50.940;13.996;2022-11-15T09:26:11;36.20;;;16.73;;
65572;SDS011;52214;50.940;13.996;2022-11-15T09:28:37;40.30;;;17.77;;
65572;SDS011;52214;50.940;13.996;2022-11-15T09:31:04;31.85;;;15.55;;
65572;SDS011;52214;50.940;13.996;2022-11-15T09:33:30;32.95;;;15.98;;
65572;SDS011;52214;50.940;13.996;2022-11-15T09:36:03;36.27;;;15.47;;
65572;SDS011;52214;50.940;13.996;2022-11-15T09:38:31;39.17;;;16.65;;
65572;SDS011;52214;50.940;13.996;2022-11-15T09:46:32;39.97;;;15.88;;
65572;SDS011;52214;50.940;13.996;2022-11-15T09:49:19;34.03;;;15.17;;
65572;SDS011;52214;50.940;13.996;2022-11-15T09:51:47;37.22;;;15.75;;
65572;SDS011;52214;50.940;13.996;2022-11-15T09:57:10;40.00;;;16.17;;
65572;SDS011;52214;50.940;13.996;2022-11-15T09:59:55;40.15;;;17.23;;
65572;SDS011;52214;50.940;13.996;2022-11-15T10:05:44;36.30;;;15.88;;
65572;SDS011;52214;50.940;13.996;2022-11-15T10:11:03;30.08;;;13.73;;
65572;SDS011;52214;50.940;13.996;2022-11-15T10:13:33;35.53;;;15.55;;
65572;SDS011;52214;50.940;13.996;2022-11-15T10:16:04;33.93;;;15.23;;
65572;SDS011;52214;50.940;13.996;2022-11-15T10:24:42;32.53;;;15.40;;
65572;SDS011;52214;50.940;13.996;2022-11-15T10:27:10;35.28;;;15.93;;
65572;SDS011;52214;50.940;13.996;2022-11-15T10:29:42;35.23;;;15.30;;
65572;SDS011;52214;50.940;13.996;2022-11-15T10:32:13;38.35;;;15.68;;
65572;SDS011;52214;50.940;13.996;2022-11-15T10:34:40;33.28;;;15.32;;
65572;SDS011;52214;50.940;13.996;2022-11-15T10:37:06;32.75;;;15.05;;
65572;SDS011;52214;50.940;13.996;2022-11-15T10:39:32;33.57;;;14.97;;
65572;SDS011;52214;50.940;13.996;2022-11-15T10:44:52;31.52;;;14.80;;
65572;SDS011;52214;50.940;13.996;2022-11-15T10:47:31;28.95;;;13.02;;
65572;SDS011;52214;50.940;13.996;2022-11-15T10:52:27;28.15;;;13.70;;
65572;SDS011;52214;50.940;13.996;2022-11-15T10:57:31;25.95;;;12.90;;
65572;SDS011;52214;50.940;13.996;2022-11-15T11:00:03;27.35;;;14.23;;
65572;SDS011;52214;50.940;13.996;2022-11-15T11:05:41;28.42;;;13.93;;
65572;SDS011;52214;50.940;13.996;2022-11-15T11:18:49;30.67;;;14.50;;
65572;SDS011;52214;50.940;13.996;2022-11-15T11:21:26;26.20;;;13.57;;
65572;SDS011;52214;50.940;13.996;2022-11-15T11:32:30;28.45;;;13.40;;
65572;SDS011;52214;50.940;13.996;2022-11-15T11:35:17;25.88;;;12.68;;
65572;SDS011;52214;50.940;13.996;2022-11-15T11:38:02;26.27;;;12.70;;
65572;SDS011;52214;50.940;13.996;2022-11-15T11:40:36;25.40;;;12.85;;
65572;SDS011;52214;50.940;13.996;2022-11-15T11:43:12;22.20;;;12.37;;
65572;SDS011;52214;50.940;13.996;2022-11-15T11:48:39;25.10;;;12.65;;
65572;SDS011;52214;50.940;13.996;2022-11-15T11:51:10;25.50;;;11.98;;
65572;SDS011;52214;50.940;13.996;2022-11-15T11:54:08;22.73;;;12.75;;
65572;SDS011;52214;50.940;13.996;2022-11-15T11:56:39;25.97;;;12.47;;
65572;SDS011;52214;50.940;13.996;2022-11-15T11:59:57;23.38;;;12.25;;
65572;SDS011;52214;50.940;13.996;2022-11-15T12:08:19;21.88;;;12.00;;
65572;SDS011;52214;50.940;13.996;2022-11-15T12:11:17;23.30;;;12.73;;
65572;SDS011;52214;50.940;13.996;2022-11-15T12:13:43;22.50;;;12.63;;
65572;SDS011;52214;50.940;13.996;2022-11-15T12:16:20;22.92;;;12.02;;
65572;SDS011;52214;50.940;13.996;2022-11-15T12:18:55;22.08;;;11.20;;
65572;SDS011;52214;50.940;13.996;2022-11-15T12:23:50;23.87;;;12.17;;
65572;SDS011;52214;50.940;13.996;2022-11-15T12:26:24;22.20;;;12.88;;
65572;SDS011;52214;50.940;13.996;2022-11-15T12:28:55;21.37;;;11.53;;
65572;SDS011;52214;50.940;13.996;2022-11-15T12:31:35;22.60;;;12.35;;
65572;SDS011;52214;50.940;13.996;2022-11-15T12:34:02;20.73;;;11.35;;
65572;SDS011;52214;50.940;13.996;2022-11-15T12:36:58;20.77;;;11.43;;
65572;SDS011;52214;50.940;13.996;2022-11-15T12:43:32;21.70;;;11.20;;
65572;SDS011;52214;50.940;13.996;2022-11-15T12:45:34;22.85;;;12.27;;
65572;SDS011;52214;50.940;13.996;2022-11-15T12:53:25;21.30;;;11.38;;
65572;SDS011;52214;50.940;13.996;2022-11-15T12:58:28;21.63;;;11.50;;
65572;SDS011;52214;50.940;13.996;2022-11-15T13:06:56;21.70;;;11.10;;
65572;SDS011;52214;50.940;13.996;2022-11-15T13:12:03;20.90;;;10.98;;
65572;SDS011;52214;50.940;13.996;2022-11-15T13:14:42;21.67;;;10.93;;
65572;SDS011;52214;50.940;13.996;2022-11-15T13:19:48;21.90;;;10.80;;
65572;SDS011;52214;50.940;13.996;2022-11-15T13:33:41;21.63;;;10.35;;
65572;SDS011;52214;50.940;13.996;2022-11-15T13:36:18;19.27;;;10.40;;
65572;SDS011;52214;50.940;13.996;2022-11-15T13:39:03;20.38;;;10.38;;
65572;SDS011;52214;50.940;13.996;2022-11-15T13:41:37;20.15;;;9.73;;
65572;SDS011;52214;50.940;13.996;2022-11-15T13:44:19;20.17;;;10.17;;
65572;SDS011;52214;50.940;13.996;2022-11-15T13:46:47;20.42;;;9.65;;
65572;SDS011;52214;50.940;13.996;2022-11-15T13:49:12;20.08;;;10.18;;
65572;SDS011;52214;50.940;13.996;2022-11-15T13:51:39;20.20;;;10.27;;
65572;SDS011;52214;50.940;13.996;2022-11-15T13:56:44;19.55;;;10.02;;
65572;SDS011;52214;50.940;13.996;2022-11-15T13:59:15;21.07;;;10.30;;
65572;SDS011;52214;50.940;13.996;2022-11-15T14:01:49;21.92;;;11.00;;
65572;SDS011;52214;50.940;13.996;2022-11-15T14:04:17;22.05;;;11.05;;
65572;SDS011;52214;50.940;13.996;2022-11-15T14:06:46;21.65;;;10.95;;
65572;SDS011;52214;50.940;13.996;2022-11-15T14:09:31;21.88;;;10.43;;
65572;SDS011;52214;50.940;13.996;2022-11-15T14:12:22;20.97;;;10.90;;
65572;SDS011;52214;50.940;13.996;2022-11-15T14:14:52;21.95;;;10.77;;
65572;SDS011;52214;50.940;13.996;2022-11-15T14:17:19;20.70;;;10.20;;
65572;SDS011;52214;50.940;13.996;2022-11-15T14:19:55;24.77;;;11.35;;
65572;SDS011;52214;50.940;13.996;2022-11-15T14:22:22;20.63;;;9.50;;
65572;SDS011;52214;50.940;13.996;2022-11-15T14:25:35;22.57;;;10.80;;
65572;SDS011;52214;50.940;13.996;2022-11-15T14:30:38;21.83;;;10.30;;
65572;SDS011;52214;50.940;13.996;2022-11-15T14:35:55;20.67;;;10.00;;
65572;SDS011;52214;50.940;13.996;2022-11-15T14:38:25;20.57;;;10.27;;
65572;SDS011;52214;50.940;13.996;2022-11-15T14:40:51;20.50;;;9.98;;
65572;SDS011;52214;50.940;13.996;2022-11-15T14:43:17;21.48;;;10.80;;
65572;SDS011;52214;50.940;13.996;2022-11-15T14:45:42;21.50;;;10.63;;
65572;SDS011;52214;50.940;13.996;2022-11-15T14:48:08;20.80;;;10.00;;
65572;SDS011;52214;50.940;13.996;2022-11-15T14:50:34;20.97;;;9.43;;
65572;SDS011;52214;50.940;13.996;2022-11-15T14:53:00;23.25;;;10.48;;
65572;SDS011;52214;50.940;13.996;2022-11-15T14:55:30;24.05;;;11.00;;
65572;SDS011;52214;50.940;13.996;2022-11-15T14:57:59;22.10;;;10.50;;
65572;SDS011;52214;50.940;13.996;2022-11-15T15:00:27;25.35;;;11.55;;
65572;SDS011;52214;50.940;13.996;2022-11-15T15:02:53;25.35;;;11.10;;
65572;SDS011;52214;50.940;13.996;2022-11-15T15:05:20;22.23;;;10.77;;
65572;SDS011;52214;50.940;13.996;2022-11-15T15:07:46;26.40;;;11.18;;
65572;SDS011;52214;50.940;13.996;2022-11-15T15:10:13;25.48;;;11.30;;
65572;SDS011;52214;50.940;13.996;2022-11-15T15:12:40;24.35;;;10.98;;
65572;SDS011;52214;50.940;13.996;2022-11-15T15:15:06;26.60;;;11.63;;
65572;SDS011;52214;50.940;13.996;2022-11-15T15:17:37;24.80;;;10.82;;
65572;SDS011;52214;50.940;13.996;2022-11-15T15:20:02;29.10;;;12.43;;
65572;SDS011;52214;50.940;13.996;2022-11-15T15:22:28;25.58;;;11.25;;
65572;SDS011;52214;50.940;13.996;2022-11-15T15:24:55;30.15;;;12.88;;
65572;SDS011;52214;50.940;13.996;2022-11-15T15:27:21;27.83;;;12.30;;
65572;SDS011;52214;50.940;13.996;2022-11-15T15:29:46;27.73;;;11.82;;
65572;SDS011;52214;50.940;13.996;2022-11-15T15:32:12;28.63;;;12.03;;
65572;SDS011;52214;50.940;13.996;2022-11-15T15:34:38;27.52;;;12.10;;
65572;SDS011;52214;50.940;13.996;2022-11-15T15:37:23;26.80;;;12.07;;
65572;SDS011;52214;50.940;13.996;2022-11-15T15:39:53;28.30;;;10.93;;
65572;SDS011;52214;50.940;13.996;2022-11-15T15:42:20;25.48;;;10.68;;
65572;SDS011;52214;50.940;13.996;2022-11-15T15:44:47;24.95;;;10.88;;
65572;SDS011;52214;50.940;13.996;2022-11-15T15:47:18;27.63;;;12.65;;
65572;SDS011;52214;50.940;13.996;2022-11-15T15:49:46;27.80;;;11.17;;
65572;SDS011;52214;50.940;13.996;2022-11-15T15:52:12;28.58;;;11.55;;
65572;SDS011;52214;50.940;13.996;2022-11-15T15:54:38;27.98;;;11.82;;
65572;SDS011;52214;50.940;13.996;2022-11-15T15:57:04;28.55;;;11.65;;
65572;SDS011;52214;50.940;13.996;2022-11-15T15:59:31;30.27;;;12.52;;
65572;SDS011;52214;50.940;13.996;2022-11-15T16:01:56;26.93;;;12.47;;
65572;SDS011;52214;50.940;13.996;2022-11-15T16:04:28;27.73;;;11.75;;
65572;SDS011;52214;50.940;13.996;2022-11-15T16:06:58;30.60;;;13.88;;
65572;SDS011;52214;50.940;13.996;2022-11-15T16:09:25;29.65;;;12.15;;
65572;SDS011;52214;50.940;13.996;2022-11-15T16:12:11;28.95;;;11.60;;
65572;SDS011;52214;50.940;13.996;2022-11-15T16:14:36;27.80;;;11.67;;
65572;SDS011;52214;50.940;13.996;2022-11-15T16:17:02;28.13;;;12.20;;
65572;SDS011;52214;50.940;13.996;2022-11-15T16:19:28;28.58;;;12.75;;
65572;SDS011;52214;50.940;13.996;2022-11-15T16:21:54;25.73;;;11.83;;
65572;SDS011;52214;50.940;13.996;2022-11-15T16:24:19;29.77;;;11.48;;
65572;SDS011;52214;50.940;13.996;2022-11-15T16:26:46;27.88;;;11.57;;
65572;SDS011;52214;50.940;13.996;2022-11-15T16:29:13;27.90;;;12.37;;
65572;SDS011;52214;50.940;13.996;2022-11-15T16:31:39;28.27;;;12.25;;
65572;SDS011;52214;50.940;13.996;2022-11-15T16:34:04;29.67;;;12.53;;
65572;SDS011;52214;50.940;13.996;2022-11-15T16:36:34;31.45;;;13.65;;
65572;SDS011;52214;50.940;13.996;2022-11-15T16:39:00;32.47;;;13.35;;
65572;SDS011;52214;50.940;13.996;2022-11-15T16:41:29;30.05;;;12.88;;
65572;SDS011;52214;50.940;13.996;2022-11-15T16:43:55;26.27;;;12.43;;
65572;SDS011;52214;50.940;13.996;2022-11-15T16:46:22;32.95;;;12.52;;